createdAt,value
2022-12-24T00:00:37.829Z,999.79
2022-12-24T00:01:18.240Z,999.74
2022-12-24T00:01:58.821Z,999.76
2022-12-24T00:02:39.372Z,999.76
2022-12-24T00:03:19.889Z,999.77
2022-12-24T00:04:00.455Z,999.79
2022-12-24T00:04:40.890Z,999.71
2022-12-24T00:05:21.422Z,999.73
2022-12-24T00:06:02.902Z,999.68
2022-12-24T00:06:43.417Z,999.66
2022-12-24T00:07:23.960Z,999.68
2022-12-24T00:08:04.564Z,999.68
2022-12-24T00:08:45.090Z,999.67
2022-12-24T00:09:25.615Z,999.64
2022-12-24T00:10:06.123Z,999.65
2022-12-24T00:10:46.646Z,999.67
2022-12-24T00:11:27.177Z,999.68
2022-12-24T00:12:07.713Z,999.72
2022-12-24T00:12:48.229Z,999.73
2022-12-24T00:13:28.756Z,999.73
2022-12-24T00:14:09.271Z,999.73
2022-12-24T00:14:49.783Z,999.74
2022-12-24T00:15:30.317Z,999.71
2022-12-24T00:16:10.886Z,999.71
2022-12-24T00:16:51.361Z,999.74
2022-12-24T00:17:31.873Z,999.68
2022-12-24T00:18:12.425Z,999.68
2022-12-24T00:18:52.915Z,999.65
2022-12-24T00:19:33.470Z,999.67
2022-12-24T00:20:14.021Z,999.64
2022-12-24T00:20:54.574Z,999.63
2022-12-24T00:21:35.104Z,999.66
2022-12-24T00:22:15.675Z,999.66
2022-12-24T00:22:56.314Z,999.68
2022-12-24T00:23:36.781Z,999.69
2022-12-24T00:24:17.308Z,999.69
2022-12-24T00:24:57.816Z,999.73
2022-12-24T00:25:38.395Z,999.82
2022-12-24T00:26:18.859Z,999.81
2022-12-24T00:26:59.457Z,999.84
2022-12-24T00:27:39.986Z,999.84
2022-12-24T00:28:20.523Z,999.8
2022-12-24T00:29:01.083Z,999.89
2022-12-24T00:29:41.582Z,999.9
2022-12-24T00:30:22.168Z,999.91
2022-12-24T00:31:02.702Z,999.91
2022-12-24T00:31:43.211Z,999.93
2022-12-24T00:32:24.377Z,999.92
2022-12-24T00:33:04.903Z,999.97
2022-12-24T00:33:45.428Z,999.93
2022-12-24T00:34:25.958Z,999.91
2022-12-24T00:36:23.953Z,1000.05
2022-12-24T00:37:04.480Z,1000.02
2022-12-24T00:37:45.001Z,1000.11
2022-12-24T00:38:25.611Z,1000.15
2022-12-24T00:39:06.183Z,1000.08
2022-12-24T00:41:20.156Z,1000.32
2022-12-24T00:42:02.050Z,1000.33
2022-12-24T00:42:44.255Z,1000.36
2022-12-24T00:43:28.161Z,1000.38
2022-12-24T00:45:26.588Z,1000.52
2022-12-24T00:46:07.158Z,1000.48
2022-12-24T00:46:47.754Z,1000.53
2022-12-24T00:47:28.170Z,1000.57
2022-12-24T00:48:08.681Z,1000.56
2022-12-24T00:48:49.378Z,1000.57
2022-12-24T00:49:29.931Z,1000.6
2022-12-24T00:50:10.454Z,1000.67
2022-12-24T00:50:51.003Z,1000.66
2022-12-24T00:51:31.646Z,1000.7
2022-12-24T00:52:12.035Z,1000.74
2022-12-24T00:52:52.616Z,1000.72
2022-12-24T00:53:33.128Z,1000.68
2022-12-24T00:54:13.680Z,1000.72
2022-12-24T00:54:54.127Z,1000.65
2022-12-24T00:55:34.648Z,1000.64
2022-12-24T00:56:15.178Z,1000.67
2022-12-24T00:58:43.460Z,1000.7
2022-12-24T00:59:23.997Z,1000.74
2022-12-24T01:00:04.549Z,1000.78
2022-12-24T01:00:45.083Z,1000.84
2022-12-24T01:01:25.746Z,1000.76
2022-12-24T01:02:06.307Z,1000.74
2022-12-24T01:02:46.850Z,1000.8
2022-12-24T01:03:27.256Z,1000.79
2022-12-24T01:04:07.701Z,1000.81
2022-12-24T01:04:48.237Z,1000.84
2022-12-24T01:05:28.827Z,1000.86
2022-12-24T01:06:09.286Z,1000.84
2022-12-24T01:06:49.820Z,1000.88
2022-12-24T01:07:30.331Z,1000.91
2022-12-24T01:08:12.603Z,1000.92
2022-12-24T01:08:53.145Z,1000.95
2022-12-24T01:09:33.668Z,1000.95
2022-12-24T01:10:14.222Z,1000.95
2022-12-24T01:10:54.743Z,1000.97
2022-12-24T01:11:35.332Z,1000.94
2022-12-24T01:12:15.993Z,1000.94
2022-12-24T01:12:56.583Z,1000.99
2022-12-24T01:15:10.156Z,1001.06
2022-12-24T01:15:50.751Z,1001.09
2022-12-24T01:16:31.304Z,1001.12
2022-12-24T01:17:11.823Z,1001.13
2022-12-24T01:19:25.376Z,1001.11
2022-12-24T01:20:05.964Z,1001.12
2022-12-24T01:20:46.517Z,1001.09
2022-12-24T01:21:27.071Z,1001.1
2022-12-24T01:22:07.617Z,1001.12
2022-12-24T01:22:48.262Z,1001.12
2022-12-24T01:23:28.711Z,1001.13
2022-12-24T01:24:09.232Z,1001.15
2022-12-24T01:24:49.783Z,1001.17
2022-12-24T01:25:30.335Z,1001.13
2022-12-24T01:26:10.890Z,1001.18
2022-12-24T01:26:51.433Z,1001.14
2022-12-24T01:27:32.489Z,1001.13
2022-12-24T01:28:13.043Z,1001.17
2022-12-24T01:28:53.603Z,1001.22
2022-12-24T01:29:34.148Z,1001.2
2022-12-24T01:30:14.714Z,1001.27
2022-12-24T01:30:56.028Z,1001.26
2022-12-24T01:31:37.108Z,1001.21
2022-12-24T01:32:17.629Z,1001.25
2022-12-24T01:32:58.176Z,1001.29
2022-12-24T01:33:38.751Z,1001.28
2022-12-24T01:34:19.263Z,1001.31
2022-12-24T01:34:59.827Z,1001.31
2022-12-24T01:35:40.354Z,1001.31
2022-12-24T01:36:20.883Z,1001.38
2022-12-24T01:37:01.419Z,1001.41
2022-12-24T01:38:59.403Z,1001.43
2022-12-24T01:39:39.969Z,1001.44
2022-12-24T01:40:20.506Z,1001.41
2022-12-24T01:41:01.202Z,1001.47
2022-12-24T01:41:41.609Z,1001.46
2022-12-24T01:42:22.162Z,1001.45
2022-12-24T01:43:02.702Z,1001.49
2022-12-24T01:45:15.484Z,1001.5
2022-12-24T01:45:56.958Z,1001.56
2022-12-24T01:46:37.433Z,1001.56
2022-12-24T01:47:17.943Z,1001.59
2022-12-24T01:47:59.069Z,1001.6
2022-12-24T01:48:39.587Z,1001.63
2022-12-24T01:51:10.080Z,1001.66
2022-12-24T01:51:50.595Z,1001.67
2022-12-24T01:52:31.145Z,1001.66
2022-12-24T01:53:11.694Z,1001.67
2022-12-24T01:53:52.259Z,1001.68
2022-12-24T01:55:45.078Z,1001.65
2022-12-24T01:56:25.627Z,1001.67
2022-12-24T01:57:06.171Z,1001.65
2022-12-24T01:57:47.372Z,1001.68
2022-12-24T01:58:27.981Z,1001.64
2022-12-24T01:59:08.516Z,1001.63
2022-12-24T01:59:49.853Z,1001.62
2022-12-24T02:00:30.392Z,1001.59
2022-12-24T02:01:11.064Z,1001.61
2022-12-24T02:01:51.582Z,1001.56
2022-12-24T02:02:32.216Z,1001.51
2022-12-24T02:03:12.584Z,1001.49
2022-12-24T02:03:53.099Z,1001.53
2022-12-24T02:04:33.568Z,1001.52
2022-12-24T02:05:14.059Z,1001.48
2022-12-24T02:05:54.666Z,1001.5
2022-12-24T02:06:35.178Z,1001.45
2022-12-24T02:07:15.700Z,1001.47
2022-12-24T02:07:56.248Z,1001.44
2022-12-24T02:08:36.750Z,1001.47
2022-12-24T02:09:17.296Z,1001.48
2022-12-24T02:09:57.813Z,1001.5
2022-12-24T02:10:38.860Z,1001.48
2022-12-24T02:11:19.390Z,1001.54
2022-12-24T02:11:59.921Z,1001.55
2022-12-24T02:12:40.448Z,1001.56
2022-12-24T02:13:21.023Z,1001.59
2022-12-24T02:14:01.552Z,1001.58
2022-12-24T02:14:42.058Z,1001.58
2022-12-24T02:15:22.592Z,1001.62
2022-12-24T02:16:03.138Z,1001.61
2022-12-24T02:16:44.517Z,1001.61
2022-12-24T02:17:24.890Z,1001.64
2022-12-24T02:18:05.429Z,1001.65
2022-12-24T02:18:45.992Z,1001.62
2022-12-24T02:19:26.510Z,1001.64
2022-12-24T02:20:07.056Z,1001.68
2022-12-24T02:20:47.598Z,1001.61
2022-12-24T02:21:28.118Z,1001.68
2022-12-24T02:22:08.645Z,1001.59
2022-12-24T02:22:49.150Z,1001.54
2022-12-24T02:23:29.672Z,1001.51
2022-12-24T02:24:10.187Z,1001.47
2022-12-24T02:24:50.710Z,1001.47
2022-12-24T02:25:31.264Z,1001.42
2022-12-24T02:26:11.819Z,1001.49
2022-12-24T02:26:52.315Z,1001.46
2022-12-24T02:27:32.834Z,1001.51
2022-12-24T02:28:13.363Z,1001.48
2022-12-24T02:28:53.940Z,1001.51
2022-12-24T02:29:35.002Z,1001.51
2022-12-24T02:30:15.533Z,1001.49
2022-12-24T02:30:56.097Z,1001.6
2022-12-24T02:31:36.645Z,1001.63
2022-12-24T02:32:17.242Z,1001.62
2022-12-24T02:32:57.757Z,1001.64
2022-12-24T02:33:38.274Z,1001.62
2022-12-24T02:34:19.664Z,1001.67
2022-12-24T02:35:00.162Z,1001.64
2022-12-24T02:35:40.702Z,1001.66
2022-12-24T02:36:21.224Z,1001.71
2022-12-24T02:37:01.771Z,1001.72
2022-12-24T02:37:42.309Z,1001.73
2022-12-24T02:38:22.828Z,1001.78
2022-12-24T02:40:20.769Z,1001.79
2022-12-24T02:41:01.292Z,1001.74
2022-12-24T02:41:41.810Z,1001.76
2022-12-24T02:42:22.355Z,1001.7
2022-12-24T02:43:02.910Z,1001.73
2022-12-24T02:43:43.447Z,1001.7
2022-12-24T02:44:23.979Z,1001.66
2022-12-24T02:45:04.520Z,1001.65
2022-12-24T02:45:45.043Z,1001.64
2022-12-24T02:46:25.601Z,1001.65
2022-12-24T02:47:06.196Z,1001.64
2022-12-24T02:47:46.599Z,1001.71
2022-12-24T02:48:27.111Z,1001.76
2022-12-24T02:49:07.779Z,1001.77
2022-12-24T02:49:48.384Z,1001.77
2022-12-24T02:50:28.870Z,1001.82
2022-12-24T02:51:09.409Z,1001.79
2022-12-24T02:51:49.955Z,1001.79
2022-12-24T02:52:30.462Z,1001.71
2022-12-24T02:54:44.621Z,1001.65
2022-12-24T02:55:25.141Z,1001.67
2022-12-24T02:56:05.652Z,1001.69
2022-12-24T02:56:46.182Z,1001.69
2022-12-24T02:57:26.722Z,1001.7
2022-12-24T02:58:07.283Z,1001.7
2022-12-24T02:58:47.831Z,1001.75
2022-12-24T03:01:02.541Z,1001.76
2022-12-24T03:01:43.217Z,1001.75
2022-12-24T03:02:23.612Z,1001.69
2022-12-24T03:03:04.144Z,1001.66
2022-12-24T03:03:44.637Z,1001.64
2022-12-24T03:04:25.175Z,1001.64
2022-12-24T03:05:05.760Z,1001.69
2022-12-24T03:05:46.280Z,1001.74
2022-12-24T03:06:26.813Z,1001.85
2022-12-24T03:07:07.372Z,1001.89
2022-12-24T03:07:47.902Z,1001.94
2022-12-24T03:08:28.488Z,1001.94
2022-12-24T03:09:09.088Z,1001.93
2022-12-24T03:09:49.595Z,1001.96
2022-12-24T03:10:30.197Z,1001.99
2022-12-24T03:11:10.692Z,1001.97
2022-12-24T03:11:51.231Z,1002.01
2022-12-24T03:12:31.738Z,1001.96
2022-12-24T03:13:12.966Z,1001.93
2022-12-24T03:13:53.486Z,1001.89
2022-12-24T03:14:33.994Z,1001.88
2022-12-24T03:16:47.119Z,1001.86
2022-12-24T03:17:27.559Z,1001.84
2022-12-24T03:18:08.107Z,1001.79
2022-12-24T03:18:48.668Z,1001.74
2022-12-24T03:19:29.173Z,1001.78
2022-12-24T03:20:09.720Z,1001.77
2022-12-24T03:20:50.268Z,1001.73
2022-12-24T03:21:30.935Z,1001.73
2022-12-24T03:22:11.448Z,1001.8
2022-12-24T03:22:51.972Z,1001.83
2022-12-24T03:23:32.483Z,1001.84
2022-12-24T03:24:12.995Z,1001.85
2022-12-24T03:24:53.516Z,1001.87
2022-12-24T03:25:34.547Z,1001.86
2022-12-24T03:26:15.090Z,1001.83
2022-12-24T03:26:55.613Z,1001.8
2022-12-24T03:27:36.130Z,1001.82
2022-12-24T03:28:16.653Z,1001.85
2022-12-24T03:28:57.234Z,1001.91
2022-12-24T03:29:37.788Z,1001.94
2022-12-24T03:30:18.353Z,1001.95
2022-12-24T03:30:58.857Z,1001.98
2022-12-24T03:31:39.454Z,1002.01
2022-12-24T03:32:19.996Z,1002.01
2022-12-24T03:33:00.530Z,1002
2022-12-24T03:33:41.064Z,1002.1
2022-12-24T03:34:21.612Z,1002.13
2022-12-24T03:35:02.174Z,1002.12
2022-12-24T03:35:42.747Z,1002.1
2022-12-24T03:36:23.295Z,1002.1
2022-12-24T03:37:03.820Z,1002.13
2022-12-24T03:37:44.364Z,1002.09
2022-12-24T03:38:24.904Z,1002.13
2022-12-24T03:39:05.455Z,1002.1
2022-12-24T03:39:45.989Z,1002.09
2022-12-24T03:40:26.536Z,1002
2022-12-24T03:42:24.518Z,1001.91
2022-12-24T03:43:05.152Z,1001.92
2022-12-24T03:43:45.657Z,1001.92
2022-12-24T03:44:26.264Z,1001.9
2022-12-24T03:45:06.757Z,1001.92
2022-12-24T03:45:47.322Z,1001.91
2022-12-24T03:46:27.868Z,1001.91
2022-12-24T03:47:08.335Z,1001.91
2022-12-24T03:47:48.856Z,1001.98
2022-12-24T03:50:01.934Z,1002.05
2022-12-24T03:50:42.441Z,1002.07
2022-12-24T03:51:23.021Z,1002.04
2022-12-24T03:52:03.469Z,1002.06
2022-12-24T03:52:43.993Z,1002.07
2022-12-24T03:53:24.505Z,1002.04
2022-12-24T03:54:05.050Z,1002.01
2022-12-24T03:54:45.589Z,1002
2022-12-24T03:55:26.194Z,1002
2022-12-24T03:56:07.401Z,1002.03
2022-12-24T03:56:47.937Z,1002.04
2022-12-24T03:57:28.448Z,1002.07
2022-12-24T03:58:09.020Z,1002.07
2022-12-24T03:58:49.561Z,1002.07
2022-12-24T03:59:30.076Z,1002.04
2022-12-24T04:00:10.627Z,1002.03
2022-12-24T04:00:51.228Z,1002.09
2022-12-24T04:01:31.919Z,1002.11
2022-12-24T04:02:12.482Z,1002.1
2022-12-24T04:02:52.914Z,1002.16
2022-12-24T04:03:33.376Z,1002.22
2022-12-24T04:04:13.825Z,1002.2
2022-12-24T04:04:54.378Z,1002.18
2022-12-24T04:05:34.913Z,1002.24
2022-12-24T04:06:15.482Z,1002.18
2022-12-24T04:06:56.023Z,1002.14
2022-12-24T04:07:36.587Z,1002.16
2022-12-24T04:08:17.121Z,1002.12
2022-12-24T04:08:57.615Z,1002.08
2022-12-24T04:09:38.173Z,1002.13
2022-12-24T04:10:18.688Z,1002.17
2022-12-24T04:11:01.343Z,1002.19
2022-12-24T04:11:39.784Z,1002.25
2022-12-24T04:12:20.339Z,1002.24
2022-12-24T04:13:00.891Z,1002.25
2022-12-24T04:13:41.431Z,1002.2
2022-12-24T04:14:21.986Z,1002.25
2022-12-24T04:16:35.625Z,1002.2
2022-12-24T04:17:16.063Z,1002.17
2022-12-24T04:17:56.668Z,1002.15
2022-12-24T04:18:37.183Z,1002.12
2022-12-24T04:19:19.483Z,1002.15
2022-12-24T04:19:59.993Z,1002.13
2022-12-24T04:20:40.541Z,1002.16
2022-12-24T04:21:21.052Z,1002.21
2022-12-24T04:22:01.583Z,1002.22
2022-12-24T04:22:42.087Z,1002.24
2022-12-24T04:23:22.597Z,1002.27
2022-12-24T04:24:03.165Z,1002.27
2022-12-24T04:24:43.678Z,1002.23
2022-12-24T04:25:24.204Z,1002.26
2022-12-24T04:26:04.716Z,1002.27
2022-12-24T04:26:45.820Z,1002.24
2022-12-24T04:27:30.251Z,1002.24
2022-12-24T04:29:39.952Z,1002.22
2022-12-24T04:30:20.466Z,1002.2
2022-12-24T04:31:01.021Z,1002.27
2022-12-24T04:31:41.593Z,1002.34
2022-12-24T04:32:22.048Z,1002.39
2022-12-24T04:33:02.607Z,1002.41
2022-12-24T04:33:43.122Z,1002.38
2022-12-24T04:35:57.038Z,1002.34
2022-12-24T04:36:37.566Z,1002.33
2022-12-24T04:37:18.892Z,1002.37
2022-12-24T04:37:58.601Z,1002.33
2022-12-24T04:38:39.169Z,1002.39
2022-12-24T04:39:19.675Z,1002.42
2022-12-24T04:40:00.202Z,1002.42
2022-12-24T04:40:40.735Z,1002.43
2022-12-24T04:42:54.297Z,1002.48
2022-12-24T04:43:34.795Z,1002.47
2022-12-24T04:44:15.300Z,1002.49
2022-12-24T04:44:55.844Z,1002.49
2022-12-24T04:45:36.428Z,1002.47
2022-12-24T04:46:16.907Z,1002.47
2022-12-24T04:46:57.428Z,1002.48
2022-12-24T04:47:37.949Z,1002.48
2022-12-24T04:48:18.502Z,1002.57
2022-12-24T04:48:59.005Z,1002.57
2022-12-24T04:49:39.521Z,1002.61
2022-12-24T04:50:20.075Z,1002.61
2022-12-24T04:51:00.584Z,1002.67
2022-12-24T04:51:41.102Z,1002.62
2022-12-24T04:52:21.648Z,1002.63
2022-12-24T04:53:02.136Z,1002.62
2022-12-24T04:53:42.672Z,1002.62
2022-12-24T04:54:23.198Z,1002.63
2022-12-24T04:55:03.721Z,1002.62
2022-12-24T04:55:44.239Z,1002.75
2022-12-24T04:56:25.451Z,1002.66
2022-12-24T04:57:05.962Z,1002.69
2022-12-24T04:57:51.230Z,1002.74
2022-12-24T04:58:27.037Z,1002.74
2022-12-24T04:59:07.519Z,1002.68
2022-12-24T04:59:48.132Z,1002.71
2022-12-24T05:00:29.297Z,1002.69
2022-12-24T05:01:09.966Z,1002.67
2022-12-24T05:01:50.521Z,1002.64
2022-12-24T05:02:31.811Z,1002.67
2022-12-24T05:04:31.140Z,1002.66
2022-12-24T05:05:11.723Z,1002.64
2022-12-24T05:05:55.184Z,1002.72
2022-12-24T05:06:32.811Z,1002.79
2022-12-24T05:07:13.409Z,1002.75
2022-12-24T05:07:53.935Z,1002.77
2022-12-24T05:08:34.495Z,1002.7
2022-12-24T05:09:15.030Z,1002.61
2022-12-24T05:11:28.397Z,1002.47
2022-12-24T05:12:08.923Z,1002.49
2022-12-24T05:12:50.273Z,1002.6
2022-12-24T05:13:37.873Z,1002.57
2022-12-24T05:15:49.799Z,1002.56
2022-12-24T05:16:30.443Z,1002.52
2022-12-24T05:17:10.980Z,1002.5
2022-12-24T05:17:51.931Z,1002.51
2022-12-24T05:18:32.468Z,1002.53
2022-12-24T05:19:13.077Z,1002.51
2022-12-24T05:19:53.584Z,1002.49
2022-12-24T05:20:34.127Z,1002.57
2022-12-24T05:21:14.660Z,1002.52
2022-12-24T05:21:56.044Z,1002.53
2022-12-24T05:22:36.607Z,1002.58
2022-12-24T05:23:17.193Z,1002.6
2022-12-24T05:23:57.711Z,1002.47
2022-12-24T05:24:38.249Z,1002.44
2022-12-24T05:25:18.743Z,1002.48
2022-12-24T05:25:59.279Z,1002.45
2022-12-24T05:26:39.802Z,1002.43
2022-12-24T05:27:20.344Z,1002.45
2022-12-24T05:28:01.458Z,1002.39
2022-12-24T05:28:41.969Z,1002.46
2022-12-24T05:30:55.126Z,1002.43
2022-12-24T05:31:35.639Z,1002.41
2022-12-24T05:32:16.190Z,1002.42
2022-12-24T05:32:56.733Z,1002.42
2022-12-24T05:33:37.320Z,1002.43
2022-12-24T05:34:17.934Z,1002.41
2022-12-24T05:34:58.397Z,1002.42
2022-12-24T05:37:11.587Z,1002.47
2022-12-24T05:37:52.138Z,1002.49
2022-12-24T05:38:32.871Z,1002.5
2022-12-24T05:39:15.885Z,1002.52
2022-12-24T05:41:31.592Z,1002.63
2022-12-24T05:42:12.126Z,1002.65
2022-12-24T05:42:52.662Z,1002.66
2022-12-24T05:43:33.167Z,1002.69
2022-12-24T05:44:13.773Z,1002.71
2022-12-24T05:44:54.276Z,1002.68
2022-12-24T05:45:34.823Z,1002.68
2022-12-24T05:46:15.377Z,1002.67
2022-12-24T05:46:55.877Z,1002.75
2022-12-24T05:47:41.348Z,1002.71
2022-12-24T05:48:16.955Z,1002.75
2022-12-24T05:48:57.469Z,1002.71
2022-12-24T05:49:38.024Z,1002.77
2022-12-24T05:50:19.121Z,1002.73
2022-12-24T05:50:59.678Z,1002.73
2022-12-24T05:51:40.272Z,1002.75
2022-12-24T05:52:20.737Z,1002.74
2022-12-24T05:53:01.330Z,1002.73
2022-12-24T05:53:42.718Z,1002.78
2022-12-24T05:54:23.239Z,1002.8
2022-12-24T05:55:03.838Z,1002.75
2022-12-24T05:55:44.359Z,1002.77
2022-12-24T05:56:24.897Z,1002.86
2022-12-24T05:57:05.420Z,1002.87
2022-12-24T05:57:46.712Z,1002.86
2022-12-24T05:58:27.220Z,1002.84
2022-12-24T05:59:07.781Z,1002.89
2022-12-24T05:59:48.336Z,1002.88
2022-12-24T06:00:28.875Z,1002.93
2022-12-24T06:01:09.498Z,1002.92
2022-12-24T06:01:50.157Z,1002.91
2022-12-24T06:02:30.607Z,1002.9
2022-12-24T06:03:12.063Z,1002.88
2022-12-24T06:03:52.646Z,1002.88
2022-12-24T06:04:33.225Z,1002.89
2022-12-24T06:05:13.845Z,1002.88
2022-12-24T06:05:54.316Z,1002.85
2022-12-24T06:06:35.622Z,1002.82
2022-12-24T06:07:16.138Z,1002.87
2022-12-24T06:07:56.677Z,1002.83
2022-12-24T06:08:37.209Z,1002.91
2022-12-24T06:09:17.750Z,1002.9
2022-12-24T06:09:58.258Z,1002.83
2022-12-24T06:10:38.834Z,1002.9
2022-12-24T06:11:19.327Z,1002.88
2022-12-24T06:11:59.884Z,1002.9
2022-12-24T06:12:40.424Z,1002.96
2022-12-24T06:13:20.975Z,1002.92
2022-12-24T06:14:01.513Z,1002.96
2022-12-24T06:14:42.834Z,1002.94
2022-12-24T06:15:24.189Z,1003
2022-12-24T06:16:03.923Z,1002.94
2022-12-24T06:16:44.405Z,1002.96
2022-12-24T06:17:24.948Z,1002.93
2022-12-24T06:18:05.458Z,1002.96
2022-12-24T06:18:45.999Z,1002.97
2022-12-24T06:19:26.522Z,1002.97
2022-12-24T06:20:07.035Z,1003.02
2022-12-24T06:20:47.562Z,1003.02
2022-12-24T06:21:29.060Z,1003.03
2022-12-24T06:22:09.585Z,1003.02
2022-12-24T06:22:50.123Z,1003.04
2022-12-24T06:23:30.620Z,1003.04
2022-12-24T06:24:11.170Z,1003.02
2022-12-24T06:24:51.710Z,1003.04
2022-12-24T06:25:32.211Z,1003.05
2022-12-24T06:26:12.779Z,1003.12
2022-12-24T06:28:41.068Z,1003.11
2022-12-24T06:29:21.572Z,1003.14
2022-12-24T06:30:02.821Z,1003.14
2022-12-24T06:30:43.394Z,1003.19
2022-12-24T06:32:41.279Z,1003.28
2022-12-24T06:33:21.864Z,1003.29
2022-12-24T06:34:02.385Z,1003.24
2022-12-24T06:34:43.696Z,1003.27
2022-12-24T06:35:24.197Z,1003.26
2022-12-24T06:36:04.736Z,1003.28
2022-12-24T06:36:45.240Z,1003.24
2022-12-24T06:37:25.781Z,1003.24
2022-12-24T06:38:06.305Z,1003.26
2022-12-24T06:38:46.860Z,1003.33
2022-12-24T06:39:27.387Z,1003.36
2022-12-24T06:40:07.912Z,1003.4
2022-12-24T06:40:48.406Z,1003.39
2022-12-24T06:41:28.963Z,1003.42
2022-12-24T06:42:09.508Z,1003.41
2022-12-24T06:42:50.059Z,1003.34
2022-12-24T06:43:30.643Z,1003.36
2022-12-24T06:44:11.163Z,1003.42
2022-12-24T06:44:51.717Z,1003.43
2022-12-24T06:47:04.815Z,1003.38
2022-12-24T06:47:45.319Z,1003.35
2022-12-24T06:48:25.839Z,1003.34
2022-12-24T06:49:06.386Z,1003.31
2022-12-24T06:49:46.931Z,1003.36
2022-12-24T06:52:00.206Z,1003.42
2022-12-24T06:52:40.750Z,1003.39
2022-12-24T06:53:22.020Z,1003.34
2022-12-24T06:54:02.537Z,1003.36
2022-12-24T06:56:15.608Z,1003.37
2022-12-24T06:56:57.797Z,1003.32
2022-12-24T06:57:36.638Z,1003.36
2022-12-24T06:58:17.153Z,1003.43
2022-12-24T06:59:01.647Z,1003.42
2022-12-24T06:59:38.202Z,1003.42
2022-12-24T07:01:54.148Z,1003.44
2022-12-24T07:02:37.228Z,1003.44
2022-12-24T07:03:19.563Z,1003.42
2022-12-24T07:04:01.756Z,1003.49
2022-12-24T07:04:42.284Z,1003.5
2022-12-24T07:07:14.688Z,1003.54
2022-12-24T07:07:55.225Z,1003.5
2022-12-24T07:08:35.752Z,1003.53
2022-12-24T07:09:16.264Z,1003.53
2022-12-24T07:09:56.803Z,1003.54
2022-12-24T07:10:37.313Z,1003.53
2022-12-24T07:11:17.889Z,1003.57
2022-12-24T07:11:58.380Z,1003.55
2022-12-24T07:12:38.870Z,1003.57
2022-12-24T07:13:19.402Z,1003.61
2022-12-24T07:14:00.023Z,1003.62
2022-12-24T07:14:41.204Z,1003.62
2022-12-24T07:15:21.755Z,1003.57
2022-12-24T07:16:03.296Z,1003.59
2022-12-24T07:16:43.873Z,1003.63
2022-12-24T07:17:24.453Z,1003.63
2022-12-24T07:18:04.887Z,1003.69
2022-12-24T07:18:45.448Z,1003.75
2022-12-24T07:19:26.316Z,1003.74
2022-12-24T07:20:06.823Z,1003.7
2022-12-24T07:20:47.334Z,1003.78
2022-12-24T07:21:27.850Z,1003.72
2022-12-24T07:22:13.498Z,1003.73
2022-12-24T07:22:48.881Z,1003.77
2022-12-24T07:23:29.405Z,1003.72
2022-12-24T07:24:09.949Z,1003.75
2022-12-24T07:24:50.477Z,1003.76
2022-12-24T07:25:30.985Z,1003.77
2022-12-24T07:26:11.542Z,1003.65
2022-12-24T07:26:52.085Z,1003.75
2022-12-24T07:27:32.655Z,1003.74
2022-12-24T07:28:13.189Z,1003.77
2022-12-24T07:28:53.720Z,1003.78
2022-12-24T07:29:34.267Z,1003.87
2022-12-24T07:30:14.815Z,1003.89
2022-12-24T07:30:55.361Z,1003.9
2022-12-24T07:31:35.949Z,1003.97
2022-12-24T07:32:16.360Z,1004.03
2022-12-24T07:32:56.881Z,1003.86
2022-12-24T07:33:37.391Z,1003.8
2022-12-24T07:34:17.960Z,1003.81
2022-12-24T07:34:58.491Z,1003.86
2022-12-24T07:35:39.013Z,1003.86
2022-12-24T07:36:19.705Z,1003.85
2022-12-24T07:37:00.104Z,1003.89
2022-12-24T07:37:40.662Z,1003.85
2022-12-24T07:38:21.201Z,1003.88
2022-12-24T07:39:01.739Z,1003.86
2022-12-24T07:39:42.256Z,1003.85
2022-12-24T07:40:22.795Z,1003.81
2022-12-24T07:41:04.068Z,1003.85
2022-12-24T07:41:44.580Z,1003.89
2022-12-24T07:42:25.124Z,1003.8
2022-12-24T07:43:05.621Z,1003.82
2022-12-24T07:43:46.164Z,1003.81
2022-12-24T07:44:26.717Z,1003.87
2022-12-24T07:45:07.262Z,1003.9
2022-12-24T07:45:47.771Z,1003.87
2022-12-24T07:46:28.398Z,1003.9
2022-12-24T07:47:08.877Z,1003.88
2022-12-24T07:47:49.363Z,1003.9
2022-12-24T07:48:29.870Z,1003.91
2022-12-24T07:49:10.427Z,1003.9
2022-12-24T07:49:50.920Z,1003.89
2022-12-24T07:50:32.136Z,1003.89
2022-12-24T07:51:12.566Z,1003.93
2022-12-24T07:53:42.496Z,1003.91
2022-12-24T07:54:23.052Z,1003.87
2022-12-24T07:55:03.601Z,1003.85
2022-12-24T07:55:44.151Z,1003.85
2022-12-24T07:56:24.670Z,1003.9
2022-12-24T07:57:05.271Z,1003.91
2022-12-24T07:59:03.251Z,1004.01
2022-12-24T07:59:43.736Z,1004.03
2022-12-24T08:00:25.017Z,1004.01
2022-12-24T08:01:05.544Z,1004
2022-12-24T08:03:18.787Z,1004.08
2022-12-24T08:03:59.275Z,1004.11
2022-12-24T08:04:39.673Z,1004.14
2022-12-24T08:05:20.226Z,1004.11
2022-12-24T08:06:00.785Z,1004.14
2022-12-24T08:06:41.480Z,1004.18
2022-12-24T08:07:21.983Z,1004.15
2022-12-24T08:08:02.549Z,1004.18
2022-12-24T08:08:43.361Z,1004.2
2022-12-24T08:09:23.899Z,1004.22
2022-12-24T08:10:04.506Z,1004.19
2022-12-24T08:10:45.051Z,1004.23
2022-12-24T08:11:26.312Z,1004.2
2022-12-24T08:12:06.870Z,1004.22
2022-12-24T08:12:47.563Z,1004.25
2022-12-24T08:13:28.077Z,1004.2
2022-12-24T08:14:09.423Z,1004.14
2022-12-24T08:14:50.093Z,1004.16
2022-12-24T08:15:30.673Z,1004.21
2022-12-24T08:16:11.205Z,1004.23
2022-12-24T08:16:52.642Z,1004.16
2022-12-24T08:17:33.212Z,1004.19
2022-12-24T08:18:13.776Z,1004.24
2022-12-24T08:20:14.476Z,1004.18
2022-12-24T08:20:56.825Z,1004.16
2022-12-24T08:21:40.353Z,1004.14
2022-12-24T08:22:22.486Z,1004.15
2022-12-24T08:24:37.620Z,1004.12
2022-12-24T08:25:18.186Z,1004.15
2022-12-24T08:25:58.702Z,1004.17
2022-12-24T08:26:39.224Z,1004.2
2022-12-24T08:27:19.730Z,1004.17
2022-12-24T08:28:00.243Z,1004.24
2022-12-24T08:28:40.770Z,1004.19
2022-12-24T08:29:21.327Z,1004.23
2022-12-24T08:30:01.893Z,1004.23
2022-12-24T08:30:42.371Z,1004.2
2022-12-24T08:31:22.913Z,1004.25
2022-12-24T08:32:03.449Z,1004.29
2022-12-24T08:32:43.970Z,1004.27
2022-12-24T08:33:25.116Z,1004.26
2022-12-24T08:34:06.221Z,1004.26
2022-12-24T08:34:47.532Z,1004.27
2022-12-24T08:35:28.056Z,1004.26
2022-12-24T08:37:42.371Z,1004.26
2022-12-24T08:38:22.926Z,1004.34
2022-12-24T08:39:03.652Z,1004.38
2022-12-24T08:39:44.074Z,1004.38
2022-12-24T08:40:24.713Z,1004.36
2022-12-24T08:41:05.227Z,1004.36
2022-12-24T08:41:45.795Z,1004.37
2022-12-24T08:42:26.522Z,1004.37
2022-12-24T08:43:07.083Z,1004.3
2022-12-24T08:43:47.735Z,1004.32
2022-12-24T08:44:28.273Z,1004.32
2022-12-24T08:45:08.801Z,1004.29
2022-12-24T08:45:49.430Z,1004.34
2022-12-24T08:46:30.228Z,1004.33
2022-12-24T08:48:27.960Z,1004.32
2022-12-24T08:49:08.520Z,1004.33
2022-12-24T08:49:49.068Z,1004.34
2022-12-24T08:50:29.615Z,1004.37
2022-12-24T08:51:10.210Z,1004.39
2022-12-24T08:51:50.732Z,1004.37
2022-12-24T08:52:31.305Z,1004.43
2022-12-24T08:53:11.883Z,1004.41
2022-12-24T08:53:54.324Z,1004.39
2022-12-24T08:54:34.868Z,1004.37
2022-12-24T08:55:16.550Z,1004.38
2022-12-24T08:55:57.132Z,1004.4
2022-12-24T08:56:37.686Z,1004.39
2022-12-24T08:57:18.201Z,1004.45
2022-12-24T08:59:31.303Z,1004.4
2022-12-24T09:00:11.829Z,1004.41
2022-12-24T09:00:52.402Z,1004.41
2022-12-24T09:01:32.934Z,1004.42
2022-12-24T09:02:13.560Z,1004.42
2022-12-24T09:02:54.021Z,1004.46
2022-12-24T09:03:35.226Z,1004.43
2022-12-24T09:04:15.720Z,1004.47
2022-12-24T09:04:56.232Z,1004.49
2022-12-24T09:05:36.761Z,1004.52
2022-12-24T09:06:17.298Z,1004.54
2022-12-24T09:06:57.821Z,1004.53
2022-12-24T09:07:38.331Z,1004.5
2022-12-24T09:08:19.777Z,1004.57
2022-12-24T09:09:00.328Z,1004.52
2022-12-24T09:09:40.821Z,1004.57
2022-12-24T09:10:21.368Z,1004.56
2022-12-24T09:11:01.871Z,1004.54
2022-12-24T09:11:43.280Z,1004.55
2022-12-24T09:12:23.803Z,1004.57
2022-12-24T09:13:04.342Z,1004.56
2022-12-24T09:13:44.873Z,1004.63
2022-12-24T09:14:25.379Z,1004.62
2022-12-24T09:15:05.951Z,1004.62
2022-12-24T09:15:46.454Z,1004.64
2022-12-24T09:16:27.042Z,1004.66